createdAt,value
2018-07-06T00:00:07.615Z,58.37
2018-07-06T00:01:07.717Z,58.37
2018-07-06T00:02:07.484Z,58.38
2018-07-06T00:03:07.577Z,58.38
2018-07-06T00:04:07.616Z,58.32
2018-07-06T00:05:07.517Z,58.34
2018-07-06T00:06:07.655Z,58.35
2018-07-06T00:07:07.643Z,58.38
2018-07-06T00:08:07.447Z,58.35
2018-07-06T00:09:07.569Z,58.37
2018-07-06T00:10:07.658Z,58.36
2018-07-06T00:11:07.981Z,58.33
2018-07-06T00:12:07.469Z,58.39
2018-07-06T00:13:07.623Z,58.37
2018-07-06T00:14:07.586Z,58.39
2018-07-06T00:15:07.631Z,58.39
2018-07-06T00:16:07.681Z,58.35
2018-07-06T00:17:07.473Z,58.39
2018-07-06T00:18:07.598Z,58.37
2018-07-06T00:19:07.662Z,58.33
2018-07-06T00:20:07.712Z,58.38
2018-07-06T00:21:07.504Z,58.35
2018-07-06T00:22:07.594Z,58.37
2018-07-06T00:23:07.485Z,58.38
2018-07-06T00:24:07.671Z,58.39
2018-07-06T00:25:07.506Z,58.37
2018-07-06T00:26:07.467Z,58.38
2018-07-06T00:27:07.522Z,58.37
2018-07-06T00:28:07.518Z,58.35
2018-07-06T00:29:07.444Z,58.41
2018-07-06T00:30:07.464Z,58.39
2018-07-06T00:31:07.644Z,58.37
2018-07-06T00:32:07.588Z,58.38
2018-07-06T00:33:07.657Z,58.36
2018-07-06T00:34:07.578Z,58.39
2018-07-06T00:35:07.468Z,58.39
2018-07-06T00:36:07.610Z,58.37
2018-07-06T00:37:07.564Z,58.37
2018-07-06T00:38:07.675Z,58.4
2018-07-06T00:39:07.449Z,58.4
2018-07-06T00:40:07.535Z,58.45
2018-07-06T00:41:07.725Z,58.36
2018-07-06T00:42:07.668Z,58.39
2018-07-06T00:43:07.483Z,58.39
2018-07-06T00:44:07.501Z,58.39
2018-07-06T00:45:07.541Z,58.41
2018-07-06T00:46:07.781Z,58.39
2018-07-06T00:47:07.557Z,58.37
2018-07-06T00:48:07.549Z,58.4
2018-07-06T00:49:07.526Z,58.36
2018-07-06T00:50:07.560Z,58.42
2018-07-06T00:51:07.673Z,58.39
2018-07-06T00:52:07.626Z,58.41
2018-07-06T00:53:07.575Z,58.38
2018-07-06T00:54:07.586Z,58.42
2018-07-06T00:55:07.475Z,58.4
2018-07-06T00:56:07.581Z,58.42
2018-07-06T00:57:07.722Z,58.39
2018-07-06T00:58:07.620Z,58.41
2018-07-06T00:59:07.548Z,58.38
2018-07-06T01:00:07.711Z,58.41
2018-07-06T01:01:07.589Z,58.41
2018-07-06T01:02:07.517Z,58.41
2018-07-06T01:03:07.505Z,58.41
2018-07-06T01:04:07.575Z,58.41
2018-07-06T01:05:07.593Z,58.42
2018-07-06T01:06:07.547Z,58.46
2018-07-06T01:07:07.703Z,58.43
2018-07-06T01:08:07.815Z,58.43
2018-07-06T01:09:07.488Z,58.43
2018-07-06T01:10:07.892Z,58.42
2018-07-06T01:11:07.430Z,58.41
2018-07-06T01:12:07.557Z,58.46
2018-07-06T01:13:07.641Z,58.44
2018-07-06T01:14:07.654Z,58.42
2018-07-06T01:15:07.499Z,58.44
2018-07-06T01:16:07.690Z,58.43
2018-07-06T01:17:07.403Z,58.44
2018-07-06T01:18:07.661Z,58.45
2018-07-06T01:19:07.457Z,58.44
2018-07-06T01:20:07.433Z,58.37
2018-07-06T01:21:07.641Z,58.41
2018-07-06T01:22:07.423Z,58.46
2018-07-06T01:23:07.639Z,58.43
2018-07-06T01:24:07.501Z,58.43
2018-07-06T01:25:07.462Z,58.39
2018-07-06T01:26:07.423Z,58.41
2018-07-06T01:27:07.549Z,58.45
2018-07-06T01:28:07.548Z,58.46
2018-07-06T01:29:17.445Z,58.47
2018-07-06T01:30:07.431Z,58.44
2018-07-06T01:31:07.659Z,58.42
2018-07-06T01:32:07.640Z,58.45
2018-07-06T01:33:07.577Z,58.43
2018-07-06T01:34:07.486Z,58.45
2018-07-06T01:35:07.639Z,58.42
2018-07-06T01:36:07.502Z,58.44
2018-07-06T01:37:07.436Z,58.39
2018-07-06T01:38:07.404Z,58.43
2018-07-06T01:39:07.583Z,58.46
2018-07-06T01:40:07.955Z,58.45
2018-07-06T01:41:07.678Z,58.43
2018-07-06T01:42:07.577Z,58.42
2018-07-06T01:43:07.582Z,58.4
2018-07-06T01:44:07.527Z,58.47
2018-07-06T01:45:07.523Z,58.46
2018-07-06T01:46:07.478Z,58.43
2018-07-06T01:47:07.552Z,58.46
2018-07-06T01:48:07.429Z,58.47
2018-07-06T01:49:07.422Z,58.44
2018-07-06T01:50:07.636Z,58.45
2018-07-06T01:51:07.666Z,58.5
2018-07-06T01:52:07.607Z,58.41
2018-07-06T01:53:07.632Z,58.47
2018-07-06T01:54:07.634Z,58.43
2018-07-06T01:55:07.633Z,58.43
2018-07-06T01:56:07.479Z,58.45
2018-07-06T01:57:07.603Z,58.45
2018-07-06T01:58:07.431Z,58.46
2018-07-06T01:59:07.603Z,58.43
2018-07-06T02:00:07.578Z,58.46
2018-07-06T02:01:07.633Z,58.44
2018-07-06T02:02:07.412Z,58.43
2018-07-06T02:03:07.485Z,58.5
2018-07-06T02:04:07.536Z,58.44
2018-07-06T02:05:07.470Z,58.44
2018-07-06T02:06:07.700Z,58.45
2018-07-06T02:07:07.432Z,58.43
2018-07-06T02:08:07.513Z,58.47
2018-07-06T02:09:07.486Z,58.41
2018-07-06T02:10:07.554Z,58.48
2018-07-06T02:11:07.723Z,58.5
2018-07-06T02:12:07.548Z,58.45
2018-07-06T02:13:07.637Z,58.47
2018-07-06T02:14:07.615Z,58.46
2018-07-06T02:15:07.454Z,58.48
2018-07-06T02:16:39.343Z,58.49
2018-07-06T02:17:07.563Z,58.51
2018-07-06T02:18:07.510Z,58.48
2018-07-06T02:19:07.659Z,58.44
2018-07-06T02:20:07.410Z,58.49
2018-07-06T02:21:07.728Z,58.5
2018-07-06T02:22:07.594Z,58.47
2018-07-06T02:23:07.450Z,58.46
2018-07-06T02:24:07.549Z,58.48
2018-07-06T02:25:07.683Z,58.49
2018-07-06T02:26:07.579Z,58.48
2018-07-06T02:27:07.488Z,58.45
2018-07-06T02:28:07.743Z,58.46
2018-07-06T02:29:07.631Z,58.43
2018-07-06T02:30:07.649Z,58.48
2018-07-06T02:31:07.589Z,58.43
2018-07-06T02:32:07.551Z,58.5
2018-07-06T02:33:07.508Z,58.48
2018-07-06T02:34:07.675Z,58.46
2018-07-06T02:35:07.447Z,58.5
2018-07-06T02:36:07.595Z,58.47
2018-07-06T02:37:07.602Z,58.46
2018-07-06T02:38:07.385Z,58.46
2018-07-06T02:39:07.441Z,58.47
2018-07-06T02:40:07.484Z,58.46
2018-07-06T02:41:07.392Z,58.49
2018-07-06T02:42:07.448Z,58.5
2018-07-06T02:43:07.420Z,58.51
2018-07-06T02:44:07.583Z,58.49
2018-07-06T02:45:07.405Z,58.52
2018-07-06T02:46:07.525Z,58.5
2018-07-06T02:47:07.562Z,58.45
2018-07-06T02:48:07.508Z,58.48
2018-07-06T02:49:07.570Z,58.5
2018-07-06T02:50:07.469Z,58.51
2018-07-06T02:51:07.547Z,58.5
2018-07-06T02:52:07.554Z,58.51
2018-07-06T02:53:07.599Z,58.49
2018-07-06T02:54:07.620Z,58.48
2018-07-06T02:55:07.932Z,58.51
2018-07-06T02:56:07.711Z,58.49
2018-07-06T02:57:07.541Z,58.52
2018-07-06T02:58:07.640Z,58.52
2018-07-06T02:59:07.396Z,58.49
2018-07-06T03:00:07.516Z,58.51
2018-07-06T03:01:07.667Z,58.49
2018-07-06T03:02:07.423Z,58.48
2018-07-06T03:03:07.664Z,58.49
2018-07-06T03:04:07.549Z,58.49
2018-07-06T03:05:07.623Z,58.51
2018-07-06T03:06:07.639Z,58.49
2018-07-06T03:07:07.493Z,58.51
2018-07-06T03:08:07.418Z,58.46
2018-07-06T03:09:07.492Z,58.47
2018-07-06T03:10:07.572Z,58.49
2018-07-06T03:11:07.512Z,58.49
2018-07-06T03:12:07.520Z,58.54
2018-07-06T03:13:07.501Z,58.51
2018-07-06T03:14:07.633Z,58.5
2018-07-06T03:15:07.681Z,58.52
2018-07-06T03:16:07.485Z,58.49
2018-07-06T03:17:07.637Z,58.49
2018-07-06T03:18:07.469Z,58.49
2018-07-06T03:19:07.596Z,58.51
2018-07-06T03:20:07.578Z,58.46
2018-07-06T03:21:07.836Z,58.51
2018-07-06T03:22:07.457Z,58.5
2018-07-06T03:23:07.511Z,58.49
2018-07-06T03:24:07.444Z,58.46
2018-07-06T03:25:07.477Z,58.47
2018-07-06T03:26:07.560Z,58.51
2018-07-06T03:27:07.569Z,58.52
2018-07-06T03:28:08.586Z,58.49
2018-07-06T03:29:07.691Z,58.53
2018-07-06T03:30:07.759Z,58.49
2018-07-06T03:31:07.624Z,58.51
2018-07-06T03:32:07.453Z,58.49
2018-07-06T03:33:07.436Z,58.52
2018-07-06T03:34:07.664Z,58.5
2018-07-06T03:35:07.378Z,58.53
2018-07-06T03:36:07.608Z,58.53
2018-07-06T03:37:07.532Z,58.52
2018-07-06T03:38:07.507Z,58.52
2018-07-06T03:39:07.392Z,58.52
2018-07-06T03:40:07.529Z,58.49
2018-07-06T03:41:07.604Z,58.49
2018-07-06T03:42:07.541Z,58.51
2018-07-06T03:43:07.383Z,58.52
2018-07-06T03:44:07.370Z,58.53
2018-07-06T03:45:07.497Z,58.52
2018-07-06T03:46:07.518Z,58.53
2018-07-06T03:47:07.747Z,58.49
2018-07-06T03:48:07.938Z,58.5
2018-07-06T03:49:07.560Z,58.51
2018-07-06T03:50:07.461Z,58.52
2018-07-06T03:51:07.601Z,58.54
2018-07-06T03:52:07.408Z,58.53
2018-07-06T03:53:39.020Z,58.5
2018-07-06T03:54:07.404Z,58.55
2018-07-06T03:55:07.416Z,58.51
2018-07-06T03:56:07.664Z,58.5
2018-07-06T03:57:07.569Z,58.55
2018-07-06T03:58:07.460Z,58.55
2018-07-06T03:59:07.560Z,58.49
2018-07-06T04:00:07.377Z,58.54
2018-07-06T04:01:08.201Z,58.52
2018-07-06T04:02:07.501Z,58.51
2018-07-06T04:03:07.549Z,58.54
2018-07-06T04:04:07.735Z,58.56
2018-07-06T04:05:07.539Z,58.54
2018-07-06T04:06:07.533Z,58.53
2018-07-06T04:07:07.482Z,58.54
2018-07-06T04:08:07.548Z,58.51
2018-07-06T04:09:07.745Z,58.57
2018-07-06T04:10:07.598Z,58.49
2018-07-06T04:11:07.545Z,58.53
2018-07-06T04:12:07.422Z,58.56
2018-07-06T04:13:07.423Z,58.55
2018-07-06T04:14:07.651Z,58.5
2018-07-06T04:15:07.732Z,58.52
2018-07-06T04:16:08.362Z,58.53
2018-07-06T04:17:07.484Z,58.54
2018-07-06T04:18:07.446Z,58.52
2018-07-06T04:19:07.639Z,58.52
2018-07-06T04:20:07.549Z,58.5
2018-07-06T04:21:07.656Z,58.52
2018-07-06T04:22:07.699Z,58.52
2018-07-06T04:23:07.545Z,58.54
2018-07-06T04:24:07.606Z,58.54
2018-07-06T04:25:07.608Z,58.52
2018-07-06T04:26:07.628Z,58.54
2018-07-06T04:27:07.400Z,58.54
2018-07-06T04:28:07.530Z,58.49
2018-07-06T04:29:07.631Z,58.51
2018-07-06T04:30:07.481Z,58.52
2018-07-06T04:31:07.575Z,58.54
2018-07-06T04:32:07.554Z,58.53
2018-07-06T04:33:07.426Z,58.52
2018-07-06T04:34:07.466Z,58.49
2018-07-06T04:35:07.470Z,58.53
2018-07-06T04:36:07.432Z,58.54
2018-07-06T04:37:07.792Z,58.51
2018-07-06T04:38:07.469Z,58.53
2018-07-06T04:39:07.534Z,58.51
2018-07-06T04:40:07.504Z,58.54
2018-07-06T04:41:07.546Z,58.54
2018-07-06T04:42:07.461Z,58.5
2018-07-06T04:43:07.383Z,58.49
2018-07-06T04:44:07.870Z,58.53
2018-07-06T04:45:07.595Z,58.53
2018-07-06T04:46:07.529Z,58.52
2018-07-06T04:47:07.613Z,58.52
2018-07-06T04:48:07.390Z,58.48
2018-07-06T04:49:07.571Z,58.49
2018-07-06T04:50:07.575Z,58.53
2018-07-06T04:51:08.390Z,58.54
2018-07-06T04:52:07.645Z,58.51
2018-07-06T04:53:07.511Z,58.5
2018-07-06T04:54:07.345Z,58.53
2018-07-06T04:55:07.516Z,58.52
2018-07-06T04:56:07.393Z,58.5
2018-07-06T04:57:07.462Z,58.5
2018-07-06T04:58:07.383Z,58.5
2018-07-06T04:59:07.542Z,58.52
2018-07-06T05:00:07.407Z,58.52
2018-07-06T05:01:07.604Z,58.52
2018-07-06T05:02:07.417Z,58.52
2018-07-06T05:03:07.402Z,58.52
2018-07-06T05:04:07.435Z,58.5
2018-07-06T05:05:07.340Z,58.49
2018-07-06T05:06:07.391Z,58.52
2018-07-06T05:07:07.430Z,58.5
2018-07-06T05:08:07.743Z,58.53
2018-07-06T05:09:07.413Z,58.51
2018-07-06T05:10:07.590Z,58.52
2018-07-06T05:11:07.370Z,58.53
2018-07-06T05:12:07.354Z,58.55
2018-07-06T05:13:07.468Z,58.52
2018-07-06T05:14:07.432Z,58.52
2018-07-06T05:15:07.441Z,58.49
2018-07-06T05:16:07.337Z,58.51
2018-07-06T05:17:07.423Z,58.5
2018-07-06T05:18:07.542Z,58.52
2018-07-06T05:19:07.526Z,58.51
2018-07-06T05:20:07.480Z,58.5
2018-07-06T05:21:07.377Z,58.5
2018-07-06T05:22:07.421Z,58.52
2018-07-06T05:23:07.517Z,58.45
2018-07-06T05:24:07.450Z,58.5
2018-07-06T05:25:07.711Z,58.52
2018-07-06T05:26:07.490Z,58.53
2018-07-06T05:27:07.495Z,58.49
2018-07-06T05:28:07.357Z,58.48
2018-07-06T05:29:07.585Z,58.47
2018-07-06T05:30:07.262Z,58.46
2018-07-06T05:31:07.405Z,58.51
2018-07-06T05:32:07.434Z,58.48
2018-07-06T05:33:07.541Z,58.5
2018-07-06T05:34:07.308Z,58.49
2018-07-06T05:35:07.379Z,58.5
2018-07-06T05:36:07.514Z,58.51
2018-07-06T05:37:07.567Z,58.49
2018-07-06T05:38:07.371Z,58.48
2018-07-06T05:39:07.370Z,58.51
2018-07-06T05:40:07.537Z,58.47
2018-07-06T05:41:07.372Z,58.45
2018-07-06T05:42:07.472Z,58.49
2018-07-06T05:43:07.651Z,58.51
2018-07-06T05:44:07.747Z,58.5
2018-07-06T05:45:07.418Z,58.49
2018-07-06T05:46:07.429Z,58.49
2018-07-06T05:47:07.568Z,58.51
2018-07-06T05:48:07.410Z,58.46
2018-07-06T05:49:07.596Z,58.48
2018-07-06T05:50:07.423Z,58.49
2018-07-06T05:51:07.492Z,58.49
2018-07-06T05:52:07.559Z,58.52
2018-07-06T05:53:07.590Z,58.5
2018-07-06T05:54:07.566Z,58.52
2018-07-06T05:55:07.483Z,58.47
2018-07-06T05:56:07.374Z,58.48
2018-07-06T05:57:07.321Z,58.46
2018-07-06T05:58:07.442Z,58.46
2018-07-06T05:59:07.513Z,58.47
2018-07-06T06:00:07.769Z,58.51
2018-07-06T06:01:07.546Z,58.48
2018-07-06T06:02:07.379Z,58.45
2018-07-06T06:03:07.553Z,58.48
2018-07-06T06:04:07.445Z,58.49
2018-07-06T06:05:07.669Z,58.47
2018-07-06T06:06:07.536Z,58.48
2018-07-06T06:07:07.545Z,58.49
2018-07-06T06:08:07.548Z,58.5
2018-07-06T06:09:07.506Z,58.5
2018-07-06T06:10:07.596Z,58.49
2018-07-06T06:11:07.519Z,58.47
2018-07-06T06:12:08.184Z,58.47
2018-07-06T06:13:07.557Z,58.5
2018-07-06T06:14:07.453Z,58.49
2018-07-06T06:15:13.429Z,58.48
2018-07-06T06:16:07.587Z,58.5
2018-07-06T06:17:07.586Z,58.51
2018-07-06T06:18:07.536Z,58.48
2018-07-06T06:19:07.516Z,58.5
2018-07-06T06:20:07.352Z,58.54
2018-07-06T06:21:07.579Z,58.49
2018-07-06T06:22:07.507Z,58.52
2018-07-06T06:23:07.393Z,58.51
2018-07-06T06:24:07.659Z,58.51
2018-07-06T06:25:07.344Z,58.51
2018-07-06T06:26:07.267Z,58.5
2018-07-06T06:27:07.396Z,58.5
2018-07-06T06:28:07.463Z,58.5
2018-07-06T06:29:07.576Z,58.51
2018-07-06T06:30:07.519Z,58.48
2018-07-06T06:31:07.760Z,58.51
2018-07-06T06:32:07.626Z,58.5
2018-07-06T06:33:08.295Z,58.5
2018-07-06T06:34:07.444Z,58.49
2018-07-06T06:35:07.489Z,58.49
2018-07-06T06:36:07.522Z,58.5
2018-07-06T06:37:07.388Z,58.5
2018-07-06T06:38:07.514Z,58.49
2018-07-06T06:39:07.549Z,58.49
2018-07-06T06:40:07.486Z,58.5
2018-07-06T06:41:07.345Z,58.49
2018-07-06T06:42:07.554Z,58.51
2018-07-06T06:43:07.319Z,58.52
2018-07-06T06:44:07.495Z,58.52
2018-07-06T06:45:07.672Z,58.5
2018-07-06T06:46:07.564Z,58.88
2018-07-06T06:47:07.630Z,58.73
2018-07-06T06:48:08.461Z,58.76
2018-07-06T06:49:07.373Z,59.57
2018-07-06T06:50:07.481Z,59.46
2018-07-06T06:51:07.581Z,59.38
2018-07-06T06:52:07.394Z,59.14
2018-07-06T06:53:08.479Z,59.1
2018-07-06T06:54:07.456Z,59.09
2018-07-06T06:55:07.633Z,58.86
2018-07-06T06:56:07.378Z,58.87
2018-07-06T06:57:07.436Z,58.88
2018-07-06T06:58:07.469Z,58.95
2018-07-06T06:59:08.419Z,58.79
2018-07-06T07:00:07.718Z,58.87
2018-07-06T07:01:08.464Z,58.79
2018-07-06T07:02:07.581Z,58.76
2018-07-06T07:03:07.362Z,58.75
2018-07-06T07:04:07.653Z,58.83
2018-07-06T07:05:07.376Z,58.81
2018-07-06T07:06:07.665Z,58.85
2018-07-06T07:07:07.577Z,58.91
2018-07-06T07:08:07.592Z,59.01
2018-07-06T07:09:07.407Z,59.06
2018-07-06T07:10:07.361Z,59
2018-07-06T07:11:07.505Z,59.04
2018-07-06T07:12:07.484Z,59.22
2018-07-06T07:13:07.389Z,59.4
2018-07-06T07:14:07.949Z,59.57
2018-07-06T07:15:07.401Z,59.64
2018-07-06T07:16:07.533Z,59.46
2018-07-06T07:17:07.463Z,59.6
2018-07-06T07:18:07.449Z,59.75
2018-07-06T07:19:07.357Z,59.79
2018-07-06T07:20:07.416Z,59.92
2018-07-06T07:21:07.461Z,59.87
2018-07-06T07:22:07.422Z,59.91
2018-07-06T07:23:07.365Z,59.75
2018-07-06T07:24:07.485Z,59.81
2018-07-06T07:25:07.704Z,59.87
2018-07-06T07:26:07.576Z,59.84
2018-07-06T07:27:07.331Z,59.79
2018-07-06T07:28:07.356Z,59.91
2018-07-06T07:29:07.525Z,59.55
2018-07-06T07:30:07.797Z,59.4
2018-07-06T07:31:07.458Z,59.57
2018-07-06T07:32:07.838Z,59.77
2018-07-06T07:33:07.394Z,60.1
2018-07-06T07:34:07.431Z,60.02
2018-07-06T07:35:07.690Z,60
2018-07-06T07:36:07.598Z,60.09
2018-07-06T07:37:07.354Z,59.91
2018-07-06T07:38:07.455Z,60.14
2018-07-06T07:39:07.461Z,60.14
2018-07-06T07:40:07.394Z,60.1
2018-07-06T07:41:07.482Z,60.09
2018-07-06T07:42:07.398Z,60.08
2018-07-06T07:43:07.423Z,60.35
2018-07-06T07:44:07.350Z,60.19
2018-07-06T07:45:07.615Z,60.16
2018-07-06T07:46:07.526Z,60.09
2018-07-06T07:47:07.441Z,60.12
2018-07-06T07:48:07.377Z,60.1
2018-07-06T07:49:07.702Z,60.15
2018-07-06T07:50:07.668Z,60.03
2018-07-06T07:51:07.767Z,59.98
2018-07-06T07:52:07.483Z,59.9
2018-07-06T07:53:07.376Z,59.72
2018-07-06T07:54:07.563Z,59.89
2018-07-06T07:55:08.151Z,59.88
2018-07-06T07:56:07.590Z,59.96
2018-07-06T07:57:07.429Z,60.16
2018-07-06T07:58:07.308Z,60.09
2018-07-06T07:59:07.410Z,59.91
2018-07-06T08:00:07.624Z,59.91
2018-07-06T08:01:09.690Z,59.96
2018-07-06T08:02:07.612Z,59.92
2018-07-06T08:03:07.470Z,59.75
2018-07-06T08:04:07.332Z,59.82
2018-07-06T08:05:07.420Z,59.86
2018-07-06T08:06:07.510Z,59.81
2018-07-06T08:07:07.480Z,59.78
2018-07-06T08:08:07.463Z,59.75
2018-07-06T08:09:07.471Z,59.72
2018-07-06T08:10:07.518Z,59.71
2018-07-06T08:11:07.399Z,59.7
2018-07-06T08:12:07.519Z,59.72
2018-07-06T08:13:07.252Z,59.65
2018-07-06T08:14:07.499Z,59.71
2018-07-06T08:15:07.407Z,59.67
2018-07-06T08:16:07.507Z,59.55
2018-07-06T08:17:07.414Z,59.63
2018-07-06T08:18:07.520Z,59.64
2018-07-06T08:19:07.636Z,59.6
2018-07-06T08:20:07.620Z,59.57
2018-07-06T08:21:07.544Z,59.53
2018-07-06T08:22:07.613Z,59.5
2018-07-06T08:23:07.525Z,59.53
2018-07-06T08:24:07.314Z,59.6
2018-07-06T08:25:07.575Z,59.65
2018-07-06T08:26:07.399Z,59.69
2018-07-06T08:27:07.557Z,59.76
2018-07-06T08:28:07.446Z,59.72
2018-07-06T08:29:07.402Z,59.65
2018-07-06T08:30:07.516Z,59.62
2018-07-06T08:31:07.328Z,59.61
2018-07-06T08:32:07.391Z,59.56
2018-07-06T08:33:07.413Z,59.56
2018-07-06T08:34:07.459Z,59.51
2018-07-06T08:35:07.350Z,59.57
2018-07-06T08:36:07.454Z,59.48
2018-07-06T08:37:07.432Z,59.41
2018-07-06T08:38:07.427Z,59.4
2018-07-06T08:39:07.441Z,59.45
2018-07-06T08:40:07.535Z,59.44
2018-07-06T08:41:07.346Z,59.47
2018-07-06T08:42:07.416Z,59.49
2018-07-06T08:43:07.520Z,59.48
2018-07-06T08:44:07.652Z,59.43
2018-07-06T08:45:07.495Z,59.47
2018-07-06T08:46:07.521Z,59.48
2018-07-06T08:47:07.526Z,59.39
2018-07-06T08:48:07.452Z,59.37
2018-07-06T08:49:07.472Z,59.36
2018-07-06T08:50:07.431Z,59.37
2018-07-06T08:51:07.279Z,59.41
2018-07-06T08:52:07.613Z,59.4
2018-07-06T08:53:07.407Z,59.39
2018-07-06T08:54:07.366Z,59.41
2018-07-06T08:55:07.416Z,59.36
2018-07-06T08:56:07.470Z,59.31
2018-07-06T08:57:07.544Z,59.29
2018-07-06T08:58:07.539Z,59.3
2018-07-06T08:59:07.837Z,59.34
2018-07-06T09:00:07.388Z,59.34
2018-07-06T09:01:07.695Z,59.36
2018-07-06T09:02:07.481Z,59.33
2018-07-06T09:03:07.534Z,59.24
2018-07-06T09:04:08.666Z,59.28
2018-07-06T09:05:07.358Z,59.25
2018-07-06T09:06:07.537Z,59.29
2018-07-06T09:07:07.466Z,59.31
2018-07-06T09:08:07.480Z,59.29
2018-07-06T09:09:07.383Z,59.23
2018-07-06T09:10:07.369Z,59.19
2018-07-06T09:11:07.384Z,59.2
2018-07-06T09:12:07.600Z,59.21
2018-07-06T09:13:08.387Z,59.22
2018-07-06T09:14:07.360Z,59.28
2018-07-06T09:15:07.414Z,59.25
2018-07-06T09:16:07.859Z,59.23
2018-07-06T09:17:07.561Z,59.22
2018-07-06T09:18:07.434Z,59.2
2018-07-06T09:19:07.409Z,59.23
2018-07-06T09:20:09.199Z,59.19
2018-07-06T09:21:07.501Z,59.21
2018-07-06T09:22:07.795Z,59.19
2018-07-06T09:23:07.459Z,59.2
2018-07-06T09:24:07.831Z,59.29
2018-07-06T09:25:07.604Z,59.13
2018-07-06T09:26:12.457Z,59.16
2018-07-06T09:27:07.320Z,59.07
2018-07-06T09:28:07.419Z,59.05
2018-07-06T09:29:08.138Z,59.07
2018-07-06T09:30:07.429Z,59.08
2018-07-06T09:31:07.423Z,59.1
2018-07-06T09:32:07.474Z,59.11
2018-07-06T09:33:07.387Z,59.1
2018-07-06T09:34:07.379Z,59.11
2018-07-06T09:35:07.552Z,59.13
2018-07-06T09:36:07.286Z,59.13
2018-07-06T09:37:07.415Z,59.11
2018-07-06T09:38:07.626Z,59.13
2018-07-06T09:39:07.570Z,59.09
2018-07-06T09:40:07.347Z,59.1
2018-07-06T09:41:07.492Z,59.09
2018-07-06T09:42:07.393Z,59.06
2018-07-06T09:43:07.358Z,59.03
2018-07-06T09:44:07.417Z,59.06
2018-07-06T09:45:07.194Z,59.05
2018-07-06T09:46:07.596Z,59.06
2018-07-06T09:47:07.567Z,59.06
2018-07-06T09:48:07.332Z,59.1
2018-07-06T09:49:07.312Z,59.06
2018-07-06T09:50:07.493Z,59.06
2018-07-06T09:51:07.481Z,59.03
2018-07-06T09:52:07.571Z,59.02
2018-07-06T09:53:07.540Z,59
2018-07-06T09:54:07.256Z,59.01
2018-07-06T09:55:07.356Z,58.99
2018-07-06T09:56:07.388Z,59
2018-07-06T09:57:07.563Z,58.96
2018-07-06T09:58:08.469Z,58.97
2018-07-06T09:59:07.467Z,58.96
2018-07-06T10:00:07.352Z,58.98
2018-07-06T10:01:07.500Z,58.97
2018-07-06T10:02:07.430Z,59
2018-07-06T10:03:07.293Z,59.01
2018-07-06T10:04:07.501Z,58.99
2018-07-06T10:05:07.296Z,58.97
2018-07-06T10:06:07.361Z,58.97
2018-07-06T10:07:07.528Z,58.95
2018-07-06T10:08:07.617Z,58.97
2018-07-06T10:09:07.446Z,58.95
2018-07-06T10:10:07.887Z,58.91
2018-07-06T10:11:07.433Z,58.93
2018-07-06T10:12:07.301Z,58.93
2018-07-06T10:13:07.457Z,58.95
2018-07-06T10:14:07.381Z,58.94
2018-07-06T10:15:07.479Z,58.93
2018-07-06T10:16:07.833Z,58.91
2018-07-06T10:17:07.497Z,58.89
2018-07-06T10:18:07.461Z,58.89
2018-07-06T10:19:07.467Z,58.92
2018-07-06T10:20:07.637Z,58.89
2018-07-06T10:21:07.292Z,58.92
2018-07-06T10:22:07.427Z,58.92
2018-07-06T10:23:07.451Z,58.93
2018-07-06T10:24:07.381Z,58.89
2018-07-06T10:25:07.551Z,59.11
2018-07-06T10:26:07.549Z,59.07
2018-07-06T10:27:07.554Z,59.13
2018-07-06T10:28:07.838Z,59.15
2018-07-06T10:29:07.506Z,59.15
2018-07-06T10:30:07.411Z,59.23
2018-07-06T10:31:07.297Z,59.01
2018-07-06T10:32:07.407Z,59.03
2018-07-06T10:33:08.298Z,59.02
2018-07-06T10:34:07.535Z,58.96
2018-07-06T10:35:07.811Z,59.01
2018-07-06T10:36:07.510Z,58.94
2018-07-06T10:37:07.603Z,59.06
2018-07-06T10:38:07.496Z,59.1
2018-07-06T10:39:07.258Z,59.15
2018-07-06T10:40:07.888Z,59.17
2018-07-06T10:41:07.370Z,59.19
2018-07-06T10:42:07.711Z,59.21
2018-07-06T10:43:07.366Z,59.19
2018-07-06T10:44:07.254Z,59.14
2018-07-06T10:45:07.506Z,59.13
2018-07-06T10:46:07.514Z,59.15
2018-07-06T10:47:07.440Z,59.22
2018-07-06T10:48:07.299Z,59.17
2018-07-06T10:49:07.427Z,59.2
2018-07-06T10:50:07.274Z,59.29
2018-07-06T10:51:07.348Z,59.2
2018-07-06T10:52:07.590Z,59.22
2018-07-06T10:53:07.488Z,59.15
2018-07-06T10:54:07.327Z,59.18
2018-07-06T10:55:07.387Z,59.14
2018-07-06T10:56:07.412Z,59.19
2018-07-06T10:57:27.704Z,59.21
2018-07-06T10:58:07.625Z,59.15
2018-07-06T10:59:07.355Z,59.22
2018-07-06T11:00:07.471Z,59.21
2018-07-06T11:01:07.385Z,59.17
2018-07-06T11:02:07.277Z,59.14
2018-07-06T11:03:07.466Z,59.22
2018-07-06T11:04:07.462Z,59.18
2018-07-06T11:05:07.836Z,59.11
2018-07-06T11:06:07.255Z,59.11
2018-07-06T11:07:07.408Z,59.11
2018-07-06T11:08:07.332Z,59.19
2018-07-06T11:09:07.324Z,59.22
2018-07-06T11:10:07.231Z,59.25
2018-07-06T11:11:07.249Z,59.25
2018-07-06T11:12:07.473Z,59.17
2018-07-06T11:13:07.379Z,59.29
2018-07-06T11:14:07.409Z,59.21
2018-07-06T11:15:07.285Z,59.18
2018-07-06T11:16:07.455Z,59.22
2018-07-06T11:17:07.247Z,59.22
2018-07-06T11:18:07.491Z,59.19
2018-07-06T11:19:07.899Z,59.28
2018-07-06T11:20:07.481Z,59.94
2018-07-06T11:21:07.516Z,59.23
2018-07-06T11:22:07.416Z,59.28
2018-07-06T11:23:07.782Z,59.23
2018-07-06T11:24:07.459Z,59.22
2018-07-06T11:25:07.907Z,59.23
2018-07-06T11:26:07.371Z,59.21
2018-07-06T11:27:07.497Z,59.17
2018-07-06T11:28:07.554Z,59.52
2018-07-06T11:29:07.597Z,59.33
2018-07-06T11:30:07.438Z,59.29
2018-07-06T11:31:07.559Z,59.35
2018-07-06T11:32:07.702Z,59.32
2018-07-06T11:33:08.023Z,59.52
2018-07-06T11:34:07.610Z,59.36
2018-07-06T11:35:07.498Z,59.34
2018-07-06T11:36:07.589Z,59.39
2018-07-06T11:37:07.543Z,59.36
2018-07-06T11:38:08.652Z,59.47
2018-07-06T11:39:07.443Z,59.58
2018-07-06T11:40:07.263Z,59.41
2018-07-06T11:41:07.400Z,59.42
2018-07-06T11:42:07.490Z,59.36
2018-07-06T11:43:07.465Z,59.34
2018-07-06T11:44:07.436Z,59.33
2018-07-06T11:45:08.967Z,59.25
2018-07-06T11:46:07.343Z,59.3
2018-07-06T11:47:07.969Z,59.16
2018-07-06T11:48:07.708Z,59.32
2018-07-06T11:49:07.305Z,59.24
2018-07-06T11:50:07.232Z,59.18
2018-07-06T11:51:07.553Z,59.23
2018-07-06T11:52:07.556Z,59.22
2018-07-06T11:53:07.632Z,59.27
2018-07-06T11:54:07.290Z,59.23
2018-07-06T11:55:07.522Z,59.23
2018-07-06T11:56:08.027Z,59.16
2018-07-06T11:57:07.366Z,59.16
2018-07-06T11:58:07.550Z,59.14
2018-07-06T11:59:07.418Z,59.13
2018-07-06T12:00:07.493Z,59.15
2018-07-06T12:01:07.713Z,59.19
2018-07-06T12:02:07.457Z,59.14
2018-07-06T12:03:07.432Z,59.07
2018-07-06T12:04:08.288Z,59.06
2018-07-06T12:05:07.297Z,59.14
2018-07-06T12:06:07.449Z,59.07
2018-07-06T12:07:07.315Z,58.99
2018-07-06T12:08:07.370Z,59.09
2018-07-06T12:09:07.531Z,59.05
2018-07-06T12:10:07.537Z,59.07
2018-07-06T12:11:07.278Z,59.01
2018-07-06T12:12:07.405Z,58.99
2018-07-06T12:13:07.483Z,59.02
2018-07-06T12:14:07.386Z,58.96
2018-07-06T12:15:07.305Z,59.06
2018-07-06T12:16:07.263Z,59.07
2018-07-06T12:17:07.464Z,59.11
2018-07-06T12:18:07.478Z,59.11
2018-07-06T12:19:07.566Z,59.12
2018-07-06T12:20:07.265Z,59.15
2018-07-06T12:21:08.198Z,59.17
2018-07-06T12:22:07.270Z,59.19
2018-07-06T12:23:07.508Z,59.22
2018-07-06T12:24:07.309Z,59.17
2018-07-06T12:25:07.334Z,59.16
2018-07-06T12:26:07.419Z,59.19
2018-07-06T12:27:07.510Z,59.14
2018-07-06T12:28:07.515Z,59.19
2018-07-06T12:29:08.153Z,59.15
2018-07-06T12:30:07.500Z,59.18
2018-07-06T12:31:07.416Z,59.19
2018-07-06T12:32:07.392Z,59.14
2018-07-06T12:33:07.468Z,59.15
2018-07-06T12:34:07.292Z,59.15
2018-07-06T12:35:07.388Z,59.19
2018-07-06T12:36:08.211Z,59.13
2018-07-06T12:37:07.349Z,59.14
2018-07-06T12:38:07.357Z,59.09
2018-07-06T12:39:08.453Z,59.12
2018-07-06T12:40:07.404Z,59.1
2018-07-06T12:41:08.325Z,59.1
2018-07-06T12:42:07.647Z,59.09
2018-07-06T12:43:07.237Z,59.09
2018-07-06T12:44:07.567Z,59.06
2018-07-06T12:45:07.563Z,59.08
2018-07-06T12:46:07.445Z,59.08
2018-07-06T12:47:08.038Z,59.11
2018-07-06T12:48:07.276Z,59.06
2018-07-06T12:49:07.602Z,59.08
2018-07-06T12:50:07.459Z,59.07
2018-07-06T12:51:07.410Z,59.05
2018-07-06T12:52:07.428Z,59.06
2018-07-06T12:53:07.393Z,59.02
2018-07-06T12:54:07.519Z,59.05
2018-07-06T12:55:07.351Z,59.02